Terminal Aerodrome Forecast
Issued by NWS

Home | Current Version | Previous Version | Text Only | Print | Product List | Glossary On
Versions: 1 2 3 4 5 6 7 8 9 10 11 12 13 14 15 16 17 18 19 20
000
FTUS46 KOTX 230539
TAFSFF
TAF
KSFF 230539Z 2306/2406 24006KT P6SM VCSH BKN015
      TEMPO 2306/2307 25010G20KT -SHRA
     FM230800 22006KT P6SM OVC015
     FM231500 21006KT P6SM BKN025
     FM231700 20006KT P6SM SCT035 BKN200
     FM240200 VRB03KT P6SM BKN150 OVC200=

USA.gov is the U.S. government's official web portal to all federal, state and local government web resources and services.